createdAt,value
2022-10-14T00:00:19.635Z,15.32
2022-10-14T00:02:50.167Z,13.20
2022-10-14T00:05:20.467Z,17.83
2022-10-14T00:07:50.608Z,17.50
2022-10-14T00:10:20.908Z,21.30
2022-10-14T00:12:51.589Z,21.70
2022-10-14T00:15:24.477Z,14.88
2022-10-14T00:17:54.694Z,13.55
2022-10-14T00:20:24.851Z,13.48
2022-10-14T00:22:55.241Z,19.00
2022-10-14T00:25:26.550Z,22.38
2022-10-14T00:27:57.145Z,17.98
2022-10-14T00:30:29.996Z,16.42
2022-10-14T00:33:03.059Z,19.33
2022-10-14T00:35:33.772Z,24.23
2022-10-14T00:38:03.993Z,17.98
2022-10-14T00:40:34.211Z,13.05
2022-10-14T00:43:05.763Z,14.65
2022-10-14T00:45:38.529Z,13.30
2022-10-14T00:48:09.651Z,17.35
2022-10-14T00:50:41.843Z,13.93
2022-10-14T00:53:16.115Z,17.38
2022-10-14T00:55:46.488Z,19.08
2022-10-14T00:58:16.739Z,16.33
2022-10-14T01:00:49.604Z,20.50
2022-10-14T01:03:23.670Z,18.67
2022-10-14T01:06:07.684Z,18.15
2022-10-14T01:08:47.683Z,17.85
2022-10-14T01:11:26.163Z,16.95
2022-10-14T01:14:07.737Z,16.02
2022-10-14T01:16:51.868Z,17.42
2022-10-14T01:20:05.725Z,17.38
2022-10-14T01:22:41.691Z,16.30
2022-10-14T01:25:23.139Z,15.55
2022-10-14T01:28:12.543Z,19.98
2022-10-14T01:30:49.906Z,13.13
2022-10-14T01:33:26.074Z,17.55
2022-10-14T01:36:08.959Z,15.20
2022-10-14T01:38:44.581Z,18.25
2022-10-14T01:41:23.482Z,15.98
2022-10-14T01:43:55.675Z,15.40
2022-10-14T01:46:30.041Z,17.23
2022-10-14T01:49:08.859Z,20.38
2022-10-14T01:51:48.511Z,20.40
2022-10-14T01:54:23.966Z,14.73
2022-10-14T01:56:57.325Z,19.35
2022-10-14T01:59:29.394Z,24.52
2022-10-14T02:02:02.616Z,18.65
2022-10-14T02:04:32.874Z,17.17
2022-10-14T02:07:10.031Z,24.52
2022-10-14T02:09:50.117Z,29.88
2022-10-14T02:12:36.053Z,22.77
2022-10-14T02:15:18.124Z,23.85
2022-10-14T02:17:59.609Z,21.02
2022-10-14T02:20:37.553Z,20.48
2022-10-14T02:23:17.245Z,13.18
2022-10-14T02:25:50.674Z,16.83
2022-10-14T02:28:25.616Z,17.47
2022-10-14T02:31:00.908Z,39.78
2022-10-14T02:33:39.591Z,32.70
2022-10-14T02:36:13.718Z,18.93
2022-10-14T02:38:45.404Z,23.38
2022-10-14T02:41:21.347Z,15.02
2022-10-14T02:43:51.918Z,17.20
2022-10-14T02:46:24.361Z,22.70
2022-10-14T02:48:57.166Z,13.68
2022-10-14T02:51:27.374Z,18.92
2022-10-14T02:53:57.681Z,14.30
2022-10-14T02:56:29.780Z,21.25
2022-10-14T02:59:03.486Z,15.23
2022-10-14T03:01:37.599Z,14.55
2022-10-14T03:04:12.400Z,19.05
2022-10-14T03:06:43.170Z,16.65
2022-10-14T03:09:13.216Z,15.50
2022-10-14T03:11:44.517Z,16.88
2022-10-14T03:14:19.354Z,18.58
2022-10-14T03:16:50.048Z,15.10
2022-10-14T03:19:27.576Z,17.35
2022-10-14T03:21:59.707Z,16.83
2022-10-14T03:24:30.494Z,16.38
2022-10-14T03:27:20.009Z,17.05
2022-10-14T03:29:54.496Z,14.05
2022-10-14T03:32:27.227Z,18.33
2022-10-14T03:35:20.008Z,17.00
2022-10-14T03:37:53.700Z,18.92
2022-10-14T03:40:28.042Z,18.27
2022-10-14T03:43:02.232Z,21.70
2022-10-14T03:45:40.217Z,15.75
2022-10-14T03:48:12.277Z,16.08
2022-10-14T03:50:46.188Z,31.58
2022-10-14T03:53:16.500Z,24.90
2022-10-14T03:55:47.487Z,19.52
2022-10-14T03:58:17.742Z,22.60
2022-10-14T04:00:55.457Z,19.50
2022-10-14T04:03:42.934Z,24.08
2022-10-14T04:06:16.389Z,15.35
2022-10-14T04:08:47.438Z,15.23
2022-10-14T04:11:29.535Z,17.35
2022-10-14T04:14:06.300Z,19.30
2022-10-14T04:16:43.990Z,16.98
2022-10-14T04:19:19.213Z,16.83
2022-10-14T04:21:52.303Z,17.75
2022-10-14T04:24:25.291Z,16.73
2022-10-14T04:27:00.545Z,25.35
2022-10-14T04:29:43.122Z,23.63
2022-10-14T04:32:22.178Z,20.05
2022-10-14T04:34:52.586Z,17.48
2022-10-14T04:37:27.376Z,16.92
2022-10-14T04:40:03.881Z,20.45
2022-10-14T04:42:35.780Z,17.80
2022-10-14T04:45:10.724Z,19.80
2022-10-14T04:47:49.439Z,18.55
2022-10-14T04:50:23.181Z,15.35
2022-10-14T04:53:30.180Z,15.02
2022-10-14T04:56:19.360Z,17.90
2022-10-14T04:58:58.551Z,25.80
2022-10-14T05:01:43.003Z,15.88
2022-10-14T05:04:13.440Z,16.25
2022-10-14T05:06:45.644Z,23.67
2022-10-14T05:09:21.061Z,20.25
2022-10-14T05:11:51.307Z,19.25
2022-10-14T05:14:25.991Z,14.95
2022-10-14T05:17:08.727Z,19.02
2022-10-14T05:19:39.351Z,14.55
2022-10-14T05:22:09.640Z,17.27
2022-10-14T05:24:47.589Z,16.35
2022-10-14T05:27:18.120Z,13.35
2022-10-14T05:32:20.220Z,15.05
2022-10-14T05:34:53.422Z,16.45
2022-10-14T05:37:32.860Z,18.00
2022-10-14T05:40:07.036Z,15.88
2022-10-14T05:42:39.584Z,16.52
2022-10-14T05:45:11.396Z,19.53
2022-10-14T05:47:48.415Z,20.48
2022-10-14T05:50:22.012Z,18.90
2022-10-14T05:52:52.670Z,15.13
2022-10-14T05:55:33.061Z,16.25
2022-10-14T05:58:06.121Z,14.18
2022-10-14T06:00:41.280Z,22.52
2022-10-14T06:03:16.440Z,16.45
2022-10-14T06:05:48.330Z,15.85
2022-10-14T06:08:18.505Z,18.38
2022-10-14T06:10:51.361Z,13.73
2022-10-14T06:13:22.085Z,15.52
2022-10-14T06:18:22.481Z,18.85
2022-10-14T06:20:56.366Z,15.02
2022-10-14T06:23:27.326Z,12.65
2022-10-14T06:26:00.204Z,14.68
2022-10-14T06:28:30.460Z,15.85
2022-10-14T06:31:00.733Z,11.13
2022-10-14T06:33:32.725Z,14.55
2022-10-14T06:36:05.654Z,14.30
2022-10-14T06:38:36.236Z,14.48
2022-10-14T06:41:10.370Z,11.80
2022-10-14T06:43:40.573Z,17.45
2022-10-14T06:46:10.814Z,11.88
2022-10-14T06:48:40.880Z,14.73
2022-10-14T06:51:11.958Z,17.53
2022-10-14T06:53:42.087Z,14.35
2022-10-14T06:56:15.282Z,18.27
2022-10-14T06:58:45.450Z,18.38
2022-10-14T07:01:15.763Z,16.75
2022-10-14T07:03:45.971Z,13.77
2022-10-14T07:06:16.132Z,9.47
2022-10-14T07:08:46.243Z,18.52
2022-10-14T07:11:18.958Z,12.27
2022-10-14T07:13:49.085Z,13.20
2022-10-14T07:16:19.195Z,12.23
2022-10-14T07:18:49.336Z,46.87
2022-10-14T07:21:19.466Z,14.30
2022-10-14T07:23:49.561Z,16.33
2022-10-14T07:26:22.319Z,14.53
2022-10-14T07:28:52.651Z,11.35
2022-10-14T07:31:22.865Z,16.92
2022-10-14T07:33:53.036Z,16.33
2022-10-14T07:36:23.224Z,12.32
2022-10-14T07:38:53.754Z,16.85
2022-10-14T07:41:28.223Z,13.23
2022-10-14T07:44:06.543Z,22.88
2022-10-14T07:46:40.988Z,17.15
2022-10-14T07:49:15.648Z,14.75
2022-10-14T07:51:46.930Z,13.23
2022-10-14T07:54:20.341Z,14.68
2022-10-14T07:56:53.723Z,13.80
2022-10-14T07:59:24.397Z,14.27
2022-10-14T08:01:56.868Z,16.38
2022-10-14T08:04:28.219Z,15.80
2022-10-14T08:06:58.425Z,14.02
2022-10-14T08:09:28.608Z,14.68
2022-10-14T08:12:01.468Z,9.43
2022-10-14T08:14:31.757Z,12.35
2022-10-14T08:17:02.067Z,10.32
2022-10-14T08:19:32.447Z,11.65
2022-10-14T08:22:02.599Z,12.85
2022-10-14T08:24:32.720Z,14.73
2022-10-14T08:27:07.246Z,17.13
2022-10-14T08:29:37.421Z,10.52
2022-10-14T08:32:08.130Z,13.30
2022-10-14T08:34:38.334Z,9.48
2022-10-14T08:37:08.620Z,11.18
2022-10-14T08:39:38.816Z,11.30
2022-10-14T08:42:41.056Z,11.57
2022-10-14T08:45:20.220Z,11.73
2022-10-14T08:47:50.687Z,16.20
2022-10-14T08:50:30.113Z,12.80
2022-10-14T08:53:07.386Z,13.07
2022-10-14T08:55:42.379Z,13.85
2022-10-14T08:58:22.426Z,12.65
2022-10-14T09:00:55.826Z,16.07
2022-10-14T09:03:33.522Z,15.00
2022-10-14T09:06:06.579Z,17.35
2022-10-14T09:08:42.346Z,19.23
2022-10-14T09:11:18.186Z,13.38
2022-10-14T09:13:53.824Z,20.00
2022-10-14T09:16:27.612Z,14.90
2022-10-14T09:19:00.747Z,16.88
2022-10-14T09:21:52.961Z,15.07
2022-10-14T09:24:26.996Z,16.33
2022-10-14T09:27:00.633Z,14.90
2022-10-14T09:29:40.379Z,15.18
2022-10-14T09:32:15.257Z,16.13
2022-10-14T09:34:50.945Z,13.05
2022-10-14T09:37:30.898Z,15.05
2022-10-14T09:40:07.086Z,43.53
2022-10-14T09:42:49.045Z,15.20
2022-10-14T09:45:24.653Z,12.75
2022-10-14T09:47:59.898Z,14.27
2022-10-14T09:50:38.472Z,14.10
2022-10-14T09:53:17.935Z,11.32
2022-10-14T09:55:52.863Z,15.40
2022-10-14T09:58:34.969Z,13.10
2022-10-14T10:01:14.577Z,12.65
2022-10-14T10:03:46.073Z,13.02
2022-10-14T10:06:20.382Z,19.73
2022-10-14T10:09:01.351Z,13.55
2022-10-14T10:11:37.465Z,14.07
2022-10-14T10:14:21.337Z,14.68
2022-10-14T10:17:14.788Z,11.68
2022-10-14T10:19:46.525Z,13.05
2022-10-14T10:22:26.684Z,13.93
2022-10-14T10:25:36.517Z,8.85
2022-10-14T10:28:21.721Z,9.50
2022-10-14T10:31:12.748Z,11.60
2022-10-14T10:36:29.175Z,9.13
2022-10-14T10:39:02.804Z,12.38
2022-10-14T10:42:01.433Z,12.77
2022-10-14T10:44:54.173Z,13.80
2022-10-14T10:47:36.010Z,17.92
2022-10-14T10:50:32.307Z,10.68
2022-10-14T10:53:42.572Z,8.07
2022-10-14T10:56:22.758Z,7.37
2022-10-14T10:59:14.594Z,7.07
2022-10-14T11:01:53.530Z,7.13
2022-10-14T11:04:34.002Z,5.18
2022-10-14T11:07:30.959Z,6.47
2022-10-14T11:10:26.033Z,8.40
2022-10-14T11:13:04.333Z,6.07
2022-10-14T11:15:48.357Z,12.98
2022-10-14T11:18:34.038Z,7.72
2022-10-14T11:21:15.278Z,6.68
2022-10-14T11:24:06.420Z,6.75
2022-10-14T11:26:56.523Z,6.38
2022-10-14T11:29:49.320Z,5.77
2022-10-14T11:32:27.180Z,7.72
2022-10-14T11:35:13.891Z,6.72
2022-10-14T11:38:03.271Z,6.57
2022-10-14T11:40:44.315Z,4.30
2022-10-14T11:43:26.777Z,3.13
2022-10-14T11:46:00.792Z,5.93
2022-10-14T11:48:38.831Z,4.20
2022-10-14T11:51:17.869Z,5.85
2022-10-14T11:54:01.637Z,5.25
2022-10-14T11:56:44.201Z,3.92
2022-10-14T11:59:40.219Z,4.30
2022-10-14T12:02:26.692Z,8.35
2022-10-14T12:05:05.810Z,3.22
2022-10-14T12:07:44.888Z,6.93
2022-10-14T12:10:27.539Z,4.72
2022-10-14T12:13:02.392Z,3.00
2022-10-14T12:15:32.865Z,4.30
2022-10-14T12:18:04.071Z,5.55
2022-10-14T12:20:44.706Z,3.78
2022-10-14T12:26:09.476Z,3.38
2022-10-14T12:28:43.363Z,3.33
2022-10-14T12:31:25.999Z,3.25
2022-10-14T12:34:35.632Z,3.45
2022-10-14T12:37:54.467Z,3.50
2022-10-14T12:40:36.700Z,2.88
2022-10-14T12:43:26.413Z,3.50
2022-10-14T12:46:18.345Z,4.18
2022-10-14T12:48:52.152Z,2.75
2022-10-14T12:51:27.463Z,2.67
2022-10-14T12:54:08.376Z,3.13
2022-10-14T12:56:43.210Z,2.67
2022-10-14T12:59:26.599Z,3.38
2022-10-14T13:02:06.855Z,3.70
2022-10-14T13:04:37.380Z,2.80
2022-10-14T13:07:40.053Z,3.13
2022-10-14T13:10:48.084Z,3.58
2022-10-14T13:14:02.197Z,3.08
2022-10-14T13:17:29.150Z,2.78
2022-10-14T13:19:59.584Z,2.85
2022-10-14T13:22:45.683Z,3.38
2022-10-14T13:25:20.531Z,3.55
2022-10-14T13:28:24.209Z,2.78
2022-10-14T13:31:06.718Z,3.90
2022-10-14T13:33:46.352Z,3.25
2022-10-14T13:36:21.181Z,2.10
2022-10-14T13:38:58.486Z,2.15
2022-10-14T13:41:31.490Z,2.55
2022-10-14T13:44:03.466Z,2.30
2022-10-14T13:46:39.807Z,2.75
2022-10-14T13:49:20.491Z,6.18
2022-10-14T13:51:54.862Z,2.20
2022-10-14T13:54:27.960Z,2.35
2022-10-14T13:57:47.941Z,4.18
2022-10-14T14:02:53.362Z,2.65
2022-10-14T14:05:35.446Z,6.70
2022-10-14T14:08:36.853Z,3.80
2022-10-14T14:11:16.216Z,5.30
2022-10-14T14:13:59.912Z,4.40
2022-10-14T14:16:35.825Z,4.03
2022-10-14T14:19:09.315Z,6.45
2022-10-14T14:21:42.854Z,3.63
2022-10-14T14:24:29.527Z,3.03
2022-10-14T14:26:59.943Z,3.17
2022-10-14T14:29:34.379Z,2.67
2022-10-14T14:32:08.466Z,3.50
2022-10-14T14:34:40.959Z,10.15
2022-10-14T14:40:19.647Z,7.05
2022-10-14T14:42:53.523Z,2.70
2022-10-14T14:45:27.005Z,3.45
2022-10-14T14:48:00.342Z,3.75
2022-10-14T14:50:34.856Z,3.47
2022-10-14T14:53:22.818Z,4.05
2022-10-14T14:56:07.876Z,4.03
2022-10-14T14:58:49.412Z,3.72
2022-10-14T15:01:24.830Z,4.45
2022-10-14T15:04:11.993Z,3.55
2022-10-14T15:06:51.616Z,4.53
2022-10-14T15:09:36.612Z,3.80
2022-10-14T15:12:10.975Z,4.90
2022-10-14T15:14:48.608Z,4.75
2022-10-14T15:17:32.195Z,5.95
2022-10-14T15:20:29.888Z,5.55
2022-10-14T15:23:00.859Z,3.35
2022-10-14T15:25:35.794Z,9.23
2022-10-14T15:28:06.499Z,5.05
2022-10-14T15:30:54.073Z,4.95
2022-10-14T15:33:26.758Z,5.82
2022-10-14T15:36:00.012Z,7.32
2022-10-14T15:41:23.981Z,3.17
2022-10-14T15:43:54.238Z,4.90
2022-10-14T15:46:37.868Z,4.45
2022-10-14T15:49:25.764Z,4.53
2022-10-14T15:51:55.927Z,5.20
2022-10-14T15:54:27.767Z,6.05
2022-10-14T15:57:01.393Z,7.47
2022-10-14T15:59:31.614Z,14.43
2022-10-14T16:02:01.925Z,8.38
2022-10-14T16:04:33.622Z,9.80
2022-10-14T16:07:04.001Z,4.40
2022-10-14T16:09:34.245Z,6.78
2022-10-14T16:12:08.466Z,4.68
2022-10-14T16:14:38.698Z,5.28
2022-10-14T16:17:09.120Z,7.50
2022-10-14T16:19:39.397Z,6.70
2022-10-14T16:22:10.373Z,36.58
2022-10-14T16:24:41.638Z,9.27
2022-10-14T16:27:14.457Z,23.60
2022-10-14T16:29:44.781Z,26.17
2022-10-14T16:32:16.802Z,8.75
2022-10-14T16:34:46.972Z,9.25
2022-10-14T16:37:17.171Z,8.00
2022-10-14T16:39:48.172Z,10.23
2022-10-14T16:42:21.948Z,8.23
2022-10-14T16:44:52.142Z,40.75
2022-10-14T16:47:23.859Z,52.58
2022-10-14T16:49:57.189Z,17.92
2022-10-14T16:52:27.342Z,11.93
2022-10-14T16:54:57.541Z,32.20
2022-10-14T16:57:34.708Z,26.85
2022-10-14T17:00:05.578Z,26.83
2022-10-14T17:05:05.657Z,7.90
2022-10-14T17:07:36.607Z,8.10
2022-10-14T17:10:08.013Z,6.93
2022-10-14T17:12:42.452Z,7.28
2022-10-14T17:15:14.118Z,8.75
2022-10-14T17:17:44.253Z,7.03
2022-10-14T17:20:14.426Z,7.40
2022-10-14T17:22:44.763Z,5.70
2022-10-14T17:25:15.390Z,6.10
2022-10-14T17:27:48.171Z,40.33
2022-10-14T17:30:18.695Z,51.15
2022-10-14T17:32:49.595Z,13.85
2022-10-14T17:35:19.863Z,7.03
2022-10-14T17:37:50.171Z,6.10
2022-10-14T17:40:20.544Z,7.95
2022-10-14T17:42:53.336Z,6.68
2022-10-14T17:45:25.439Z,6.68
2022-10-14T17:47:57.238Z,8.43
2022-10-14T17:50:28.832Z,8.02
2022-10-14T17:52:59.724Z,11.13
2022-10-14T17:58:02.369Z,12.60
2022-10-14T18:00:32.535Z,9.25
2022-10-14T18:03:02.737Z,9.30
2022-10-14T18:05:32.864Z,9.82
2022-10-14T18:08:03.432Z,9.20
2022-10-14T18:10:33.836Z,10.07
2022-10-14T18:13:07.026Z,42.70
2022-10-14T18:15:37.267Z,48.55
2022-10-14T18:18:08.466Z,33.90
2022-10-14T18:20:39.726Z,13.50
2022-10-14T18:23:11.489Z,9.48
2022-10-14T18:25:41.783Z,10.90
2022-10-14T18:28:14.556Z,10.38
2022-10-14T18:30:44.760Z,13.07
2022-10-14T18:33:14.977Z,10.77
2022-10-14T18:35:48.579Z,9.45
2022-10-14T18:38:19.062Z,8.52
2022-10-14T18:40:49.372Z,10.90
2022-10-14T18:43:22.340Z,10.55
2022-10-14T18:45:52.747Z,13.18
2022-10-14T18:48:23.032Z,10.48
2022-10-14T18:51:00.357Z,10.43
2022-10-14T18:53:32.326Z,9.13
2022-10-14T18:56:08.766Z,13.63
2022-10-14T18:58:42.518Z,29.77
2022-10-14T19:01:15.357Z,10.93
2022-10-14T19:03:48.842Z,8.43
2022-10-14T19:06:19.195Z,8.45
2022-10-14T19:08:49.647Z,11.75
2022-10-14T19:11:22.342Z,8.60
2022-10-14T19:13:58.066Z,12.68
2022-10-14T19:16:31.037Z,11.30
2022-10-14T19:19:04.127Z,9.50
2022-10-14T19:21:34.686Z,10.25
2022-10-14T19:24:05.885Z,17.63
2022-10-14T19:26:40.002Z,10.13
2022-10-14T19:29:16.509Z,8.32
2022-10-14T19:31:47.309Z,11.02
2022-10-14T19:34:19.172Z,8.60
2022-10-14T19:36:49.413Z,7.20
2022-10-14T19:39:20.150Z,10.63
2022-10-14T19:41:50.428Z,10.68
2022-10-14T19:44:23.301Z,8.38
2022-10-14T19:46:53.461Z,9.90
2022-10-14T19:49:23.617Z,12.77
2022-10-14T19:51:54.021Z,9.17
2022-10-14T19:54:24.219Z,11.32
2022-10-14T19:56:54.377Z,10.32
2022-10-14T19:59:27.232Z,19.42
2022-10-14T20:01:57.400Z,11.63
2022-10-14T20:04:27.911Z,11.65
2022-10-14T20:09:28.995Z,9.55
2022-10-14T20:11:59.134Z,12.05
2022-10-14T20:14:32.004Z,11.48
2022-10-14T20:17:02.144Z,35.25
2022-10-14T20:19:32.410Z,43.13
2022-10-14T20:22:02.746Z,15.63
2022-10-14T20:24:32.955Z,10.40
2022-10-14T20:27:04.600Z,11.18
2022-10-14T20:29:41.341Z,15.57
2022-10-14T20:32:12.182Z,13.85
2022-10-14T20:37:12.301Z,9.38
2022-10-14T20:39:42.511Z,8.80
2022-10-14T20:42:12.619Z,9.93
2022-10-14T20:44:45.314Z,8.30
2022-10-14T20:47:15.515Z,9.07
2022-10-14T20:49:45.790Z,10.23
2022-10-14T20:52:15.920Z,8.95
2022-10-14T20:54:46.088Z,9.33
2022-10-14T20:57:16.455Z,9.95
2022-10-14T20:59:49.253Z,11.43
2022-10-14T21:02:22.581Z,11.73
2022-10-14T21:04:54.560Z,10.13
2022-10-14T21:07:25.197Z,11.05
2022-10-14T21:09:55.653Z,7.50
2022-10-14T21:12:26.334Z,10.98
2022-10-14T21:17:29.230Z,8.02
2022-10-14T21:19:59.376Z,9.65
2022-10-14T21:22:29.580Z,9.85
2022-10-14T21:24:59.916Z,8.43
2022-10-14T21:27:30.030Z,11.27
2022-10-14T21:30:02.790Z,10.00
2022-10-14T21:32:32.974Z,9.80
2022-10-14T21:35:03.188Z,10.95
2022-10-14T21:37:33.285Z,7.60
2022-10-14T21:40:03.369Z,7.63
2022-10-14T21:42:33.450Z,8.27
2022-10-14T21:45:06.421Z,8.37
2022-10-14T21:47:36.578Z,11.52
2022-10-14T21:50:07.339Z,8.93
2022-10-14T21:52:37.828Z,7.38
2022-10-14T21:55:09.596Z,9.70
2022-10-14T21:57:39.723Z,9.65
2022-10-14T22:00:14.827Z,8.10
2022-10-14T22:02:45.037Z,8.80
2022-10-14T22:05:15.267Z,9.75
2022-10-14T22:07:45.349Z,8.67
2022-10-14T22:10:27.810Z,7.20
2022-10-14T22:12:59.531Z,6.97
2022-10-14T22:15:32.471Z,9.73
2022-10-14T22:18:02.705Z,9.15
2022-10-14T22:20:32.935Z,8.00
2022-10-14T22:23:03.236Z,7.10
2022-10-14T22:25:35.889Z,6.65
2022-10-14T22:28:06.985Z,8.00
2022-10-14T22:30:40.240Z,6.47
2022-10-14T22:33:10.551Z,8.73
2022-10-14T22:35:40.834Z,8.60
2022-10-14T22:38:11.338Z,8.43
2022-10-14T22:40:41.559Z,9.05
2022-10-14T22:43:11.790Z,6.78
2022-10-14T22:45:47.624Z,8.32
2022-10-14T22:48:17.810Z,7.18
2022-10-14T22:50:47.977Z,8.48
2022-10-14T22:53:18.231Z,8.02
2022-10-14T22:55:54.355Z,8.45
2022-10-14T22:58:24.889Z,8.45
2022-10-14T23:00:57.818Z,7.90
2022-10-14T23:03:28.988Z,8.02
2022-10-14T23:06:03.970Z,7.85
2022-10-14T23:08:35.377Z,7.82
2022-10-14T23:11:07.098Z,8.48
2022-10-14T23:13:37.787Z,7.90
2022-10-14T23:16:14.121Z,9.50
2022-10-14T23:18:45.768Z,8.60
2022-10-14T23:21:19.382Z,8.88
2022-10-14T23:23:51.634Z,9.77
2022-10-14T23:26:26.155Z,10.20
2022-10-14T23:28:58.170Z,9.20
2022-10-14T23:31:33.304Z,9.25
2022-10-14T23:34:05.778Z,10.05
2022-10-14T23:36:36.488Z,8.80
2022-10-14T23:39:07.941Z,7.53
2022-10-14T23:41:38.454Z,8.13
2022-10-14T23:44:08.644Z,9.27
2022-10-14T23:46:41.664Z,8.75
2022-10-14T23:49:25.653Z,8.77
2022-10-14T23:51:56.882Z,8.27
2022-10-14T23:54:27.221Z,9.68
2022-10-14T23:56:57.386Z,7.70
2022-10-14T23:59:27.460Z,8.03
